Guernsey, Iowa
Current Conditions -  °F | °C
As of 8:55 AM on Thursday 23 Oct 2014 (Local Time) from KGGI Reporting Station
Light Rain Light Rain  
Wind Chill: 46°   Ceiling: 2900
Heat Index: 49°   Visibility: 10mi
Dew Point: 45°   Wind: 7mph
Humidity: 86%   Direction: 160°SSE
Pressure: 30.06"   Gusts: NA
Location:  41.65°N, 92.34°W
Report Text: KGGI 231355Z AUTO 16006KT 10SM -RA BKN029 BKN039 OVC048 10/07 A3006 RMK AO2 T00950072
Loading
Personal Weather Stations






























Interactive Weather Map
Tropical Storm Tracking
New forecast layout! Learn more

10-Day Weather Forecast

Advertisements
Track Severe Weather on mobile